sensor_id;sensor_type;location;lat;lon;timestamp;P1;durP1;ratioP1;P2;durP2;ratioP2
31746;SDS011;18319;48.974;8.462;2023-04-19T00:01:49;11.18;;;7.97;;
31746;SDS011;18319;48.974;8.462;2023-04-19T00:04:15;12.07;;;9.43;;
31746;SDS011;18319;48.974;8.462;2023-04-19T00:06:42;14.00;;;10.27;;
31746;SDS011;18319;48.974;8.462;2023-04-19T00:09:11;14.07;;;9.23;;
31746;SDS011;18319;48.974;8.462;2023-04-19T00:11:39;11.13;;;9.15;;
31746;SDS011;18319;48.974;8.462;2023-04-19T00:14:06;12.85;;;8.73;;
31746;SDS011;18319;48.974;8.462;2023-04-19T00:16:33;14.43;;;9.02;;
31746;SDS011;18319;48.974;8.462;2023-04-19T00:18:59;11.13;;;8.70;;
31746;SDS011;18319;48.974;8.462;2023-04-19T00:21:26;13.35;;;9.13;;
31746;SDS011;18319;48.974;8.462;2023-04-19T00:23:53;11.45;;;8.48;;
31746;SDS011;18319;48.974;8.462;2023-04-19T00:26:20;11.32;;;9.15;;
31746;SDS011;18319;48.974;8.462;2023-04-19T00:28:48;10.57;;;8.35;;
31746;SDS011;18319;48.974;8.462;2023-04-19T00:31:14;14.88;;;9.35;;
31746;SDS011;18319;48.974;8.462;2023-04-19T00:33:41;14.88;;;9.45;;
31746;SDS011;18319;48.974;8.462;2023-04-19T00:36:08;11.05;;;9.20;;
31746;SDS011;18319;48.974;8.462;2023-04-19T00:38:35;10.38;;;8.20;;
31746;SDS011;18319;48.974;8.462;2023-04-19T00:41:02;11.77;;;8.88;;
31746;SDS011;18319;48.974;8.462;2023-04-19T00:43:29;12.88;;;9.18;;
31746;SDS011;18319;48.974;8.462;2023-04-19T00:45:57;10.18;;;8.45;;
31746;SDS011;18319;48.974;8.462;2023-04-19T00:48:24;10.45;;;9.30;;
31746;SDS011;18319;48.974;8.462;2023-04-19T00:50:51;13.68;;;10.20;;
31746;SDS011;18319;48.974;8.462;2023-04-19T00:53:18;10.77;;;8.80;;
31746;SDS011;18319;48.974;8.462;2023-04-19T00:55:44;12.65;;;9.10;;
31746;SDS011;18319;48.974;8.462;2023-04-19T00:58:11;13.43;;;8.23;;
31746;SDS011;18319;48.974;8.462;2023-04-19T01:00:38;10.27;;;8.20;;
31746;SDS011;18319;48.974;8.462;2023-04-19T01:03:06;11.75;;;8.70;;
31746;SDS011;18319;48.974;8.462;2023-04-19T01:05:33;16.00;;;9.40;;
31746;SDS011;18319;48.974;8.462;2023-04-19T01:08:00;12.55;;;9.35;;
31746;SDS011;18319;48.974;8.462;2023-04-19T01:10:27;13.48;;;9.77;;
31746;SDS011;18319;48.974;8.462;2023-04-19T01:12:54;14.82;;;8.70;;
31746;SDS011;18319;48.974;8.462;2023-04-19T01:15:21;13.52;;;9.20;;
31746;SDS011;18319;48.974;8.462;2023-04-19T01:17:48;11.23;;;8.38;;
31746;SDS011;18319;48.974;8.462;2023-04-19T01:20:16;15.73;;;9.57;;
31746;SDS011;18319;48.974;8.462;2023-04-19T01:22:44;9.82;;;8.55;;
31746;SDS011;18319;48.974;8.462;2023-04-19T01:25:11;10.63;;;8.02;;
31746;SDS011;18319;48.974;8.462;2023-04-19T01:27:38;12.48;;;8.82;;
31746;SDS011;18319;48.974;8.462;2023-04-19T01:30:05;12.02;;;9.57;;
31746;SDS011;18319;48.974;8.462;2023-04-19T01:32:32;9.25;;;7.93;;
31746;SDS011;18319;48.974;8.462;2023-04-19T01:34:59;12.77;;;10.07;;
31746;SDS011;18319;48.974;8.462;2023-04-19T01:37:26;11.15;;;8.82;;
31746;SDS011;18319;48.974;8.462;2023-04-19T01:39:54;14.10;;;8.27;;
31746;SDS011;18319;48.974;8.462;2023-04-19T01:42:21;13.18;;;10.13;;
31746;SDS011;18319;48.974;8.462;2023-04-19T01:44:47;11.88;;;9.02;;
31746;SDS011;18319;48.974;8.462;2023-04-19T01:47:14;12.95;;;9.65;;
31746;SDS011;18319;48.974;8.462;2023-04-19T01:49:41;13.88;;;9.13;;
31746;SDS011;18319;48.974;8.462;2023-04-19T01:52:08;13.73;;;9.38;;
31746;SDS011;18319;48.974;8.462;2023-04-19T01:54:35;13.43;;;9.93;;
31746;SDS011;18319;48.974;8.462;2023-04-19T01:57:03;12.00;;;9.48;;
31746;SDS011;18319;48.974;8.462;2023-04-19T01:59:30;13.87;;;9.53;;
31746;SDS011;18319;48.974;8.462;2023-04-19T02:01:57;12.90;;;9.52;;
31746;SDS011;18319;48.974;8.462;2023-04-19T02:04:23;11.80;;;10.20;;
31746;SDS011;18319;48.974;8.462;2023-04-19T02:06:50;13.25;;;9.18;;
31746;SDS011;18319;48.974;8.462;2023-04-19T02:09:17;12.80;;;9.73;;
31746;SDS011;18319;48.974;8.462;2023-04-19T02:11:43;13.02;;;9.77;;
31746;SDS011;18319;48.974;8.462;2023-04-19T02:14:12;12.57;;;9.15;;
31746;SDS011;18319;48.974;8.462;2023-04-19T02:16:38;13.60;;;10.05;;
31746;SDS011;18319;48.974;8.462;2023-04-19T02:19:05;13.40;;;10.32;;
31746;SDS011;18319;48.974;8.462;2023-04-19T02:21:32;11.48;;;9.27;;
31746;SDS011;18319;48.974;8.462;2023-04-19T02:23:59;14.35;;;10.02;;
31746;SDS011;18319;48.974;8.462;2023-04-19T02:26:26;14.00;;;10.23;;
31746;SDS011;18319;48.974;8.462;2023-04-19T02:28:53;13.27;;;9.88;;
31746;SDS011;18319;48.974;8.462;2023-04-19T02:31:21;13.75;;;10.07;;
31746;SDS011;18319;48.974;8.462;2023-04-19T02:33:48;14.27;;;10.43;;
31746;SDS011;18319;48.974;8.462;2023-04-19T02:36:15;14.27;;;9.05;;
31746;SDS011;18319;48.974;8.462;2023-04-19T02:38:41;14.38;;;10.30;;
31746;SDS011;18319;48.974;8.462;2023-04-19T02:41:08;13.75;;;9.13;;
31746;SDS011;18319;48.974;8.462;2023-04-19T02:43:35;12.30;;;9.57;;
31746;SDS011;18319;48.974;8.462;2023-04-19T02:46:02;10.63;;;9.25;;
31746;SDS011;18319;48.974;8.462;2023-04-19T02:48:30;13.63;;;9.90;;
31746;SDS011;18319;48.974;8.462;2023-04-19T02:50:56;14.13;;;9.45;;
31746;SDS011;18319;48.974;8.462;2023-04-19T02:53:23;12.85;;;9.90;;
31746;SDS011;18319;48.974;8.462;2023-04-19T02:55:50;13.52;;;9.57;;
31746;SDS011;18319;48.974;8.462;2023-04-19T02:58:17;14.65;;;9.63;;
31746;SDS011;18319;48.974;8.462;2023-04-19T03:00:43;14.50;;;9.80;;
31746;SDS011;18319;48.974;8.462;2023-04-19T03:03:10;13.23;;;11.40;;
31746;SDS011;18319;48.974;8.462;2023-04-19T03:05:38;14.63;;;10.27;;
31746;SDS011;18319;48.974;8.462;2023-04-19T03:08:05;13.23;;;9.85;;
31746;SDS011;18319;48.974;8.462;2023-04-19T03:10:32;14.00;;;10.07;;
31746;SDS011;18319;48.974;8.462;2023-04-19T03:12:58;13.93;;;9.75;;
31746;SDS011;18319;48.974;8.462;2023-04-19T03:15:25;10.75;;;9.25;;
31746;SDS011;18319;48.974;8.462;2023-04-19T03:17:52;14.02;;;9.55;;
31746;SDS011;18319;48.974;8.462;2023-04-19T03:20:19;14.15;;;9.88;;
31746;SDS011;18319;48.974;8.462;2023-04-19T03:22:47;15.70;;;10.77;;
31746;SDS011;18319;48.974;8.462;2023-04-19T03:25:14;10.82;;;8.77;;
31746;SDS011;18319;48.974;8.462;2023-04-19T03:27:41;12.05;;;9.18;;
31746;SDS011;18319;48.974;8.462;2023-04-19T03:30:10;11.60;;;10.05;;
31746;SDS011;18319;48.974;8.462;2023-04-19T03:32:37;10.10;;;8.98;;
31746;SDS011;18319;48.974;8.462;2023-04-19T03:35:04;14.15;;;9.80;;
31746;SDS011;18319;48.974;8.462;2023-04-19T03:37:31;13.45;;;9.68;;
31746;SDS011;18319;48.974;8.462;2023-04-19T03:40:00;12.15;;;8.68;;
31746;SDS011;18319;48.974;8.462;2023-04-19T03:42:26;11.95;;;9.25;;
31746;SDS011;18319;48.974;8.462;2023-04-19T03:44:53;12.70;;;9.82;;
31746;SDS011;18319;48.974;8.462;2023-04-19T03:47:20;10.32;;;9.13;;
31746;SDS011;18319;48.974;8.462;2023-04-19T03:49:47;13.17;;;9.30;;
31746;SDS011;18319;48.974;8.462;2023-04-19T03:52:13;12.57;;;9.02;;
31746;SDS011;18319;48.974;8.462;2023-04-19T03:54:40;11.10;;;8.60;;
31746;SDS011;18319;48.974;8.462;2023-04-19T03:57:09;15.18;;;8.93;;
31746;SDS011;18319;48.974;8.462;2023-04-19T03:59:37;9.80;;;8.02;;
31746;SDS011;18319;48.974;8.462;2023-04-19T04:02:04;10.48;;;8.57;;
31746;SDS011;18319;48.974;8.462;2023-04-19T04:04:31;9.98;;;8.38;;
31746;SDS011;18319;48.974;8.462;2023-04-19T04:06:58;9.65;;;7.97;;
31746;SDS011;18319;48.974;8.462;2023-04-19T04:09:25;12.32;;;9.18;;
31746;SDS011;18319;48.974;8.462;2023-04-19T04:11:52;10.88;;;8.38;;
31746;SDS011;18319;48.974;8.462;2023-04-19T04:14:20;12.50;;;9.43;;
31746;SDS011;18319;48.974;8.462;2023-04-19T04:16:46;9.95;;;8.85;;
31746;SDS011;18319;48.974;8.462;2023-04-19T04:19:13;11.57;;;9.27;;
31746;SDS011;18319;48.974;8.462;2023-04-19T04:21:40;13.73;;;9.45;;
31746;SDS011;18319;48.974;8.462;2023-04-19T04:24:07;13.13;;;9.18;;
31746;SDS011;18319;48.974;8.462;2023-04-19T04:26:34;13.57;;;8.50;;
31746;SDS011;18319;48.974;8.462;2023-04-19T04:29:03;8.98;;;7.43;;
31746;SDS011;18319;48.974;8.462;2023-04-19T04:31:31;12.50;;;8.77;;
31746;SDS011;18319;48.974;8.462;2023-04-19T04:33:59;10.10;;;8.18;;
31746;SDS011;18319;48.974;8.462;2023-04-19T04:36:27;10.73;;;9.32;;
31746;SDS011;18319;48.974;8.462;2023-04-19T04:38:54;10.45;;;8.05;;
31746;SDS011;18319;48.974;8.462;2023-04-19T04:41:21;10.70;;;8.40;;
31746;SDS011;18319;48.974;8.462;2023-04-19T04:43:49;9.77;;;8.75;;
31746;SDS011;18319;48.974;8.462;2023-04-19T04:46:17;9.52;;;8.45;;
31746;SDS011;18319;48.974;8.462;2023-04-19T04:48:45;8.95;;;7.30;;
31746;SDS011;18319;48.974;8.462;2023-04-19T04:51:12;13.02;;;8.63;;
31746;SDS011;18319;48.974;8.462;2023-04-19T04:53:39;11.45;;;9.05;;
31746;SDS011;18319;48.974;8.462;2023-04-19T04:56:06;10.00;;;8.43;;
31746;SDS011;18319;48.974;8.462;2023-04-19T04:58:33;9.75;;;8.48;;
31746;SDS011;18319;48.974;8.462;2023-04-19T05:00:59;13.75;;;8.95;;
31746;SDS011;18319;48.974;8.462;2023-04-19T05:03:26;12.82;;;8.07;;
31746;SDS011;18319;48.974;8.462;2023-04-19T05:05:54;11.00;;;8.82;;
31746;SDS011;18319;48.974;8.462;2023-04-19T05:08:21;9.50;;;8.10;;
31746;SDS011;18319;48.974;8.462;2023-04-19T05:10:48;10.70;;;8.18;;
31746;SDS011;18319;48.974;8.462;2023-04-19T05:13:15;9.15;;;7.93;;
31746;SDS011;18319;48.974;8.462;2023-04-19T05:15:42;7.93;;;7.13;;
31746;SDS011;18319;48.974;8.462;2023-04-19T05:18:08;8.70;;;7.80;;
31746;SDS011;18319;48.974;8.462;2023-04-19T05:20:35;10.45;;;8.02;;
31746;SDS011;18319;48.974;8.462;2023-04-19T05:23:03;8.88;;;7.90;;
31746;SDS011;18319;48.974;8.462;2023-04-19T05:25:30;8.45;;;7.25;;
31746;SDS011;18319;48.974;8.462;2023-04-19T05:27:57;9.30;;;7.88;;
31746;SDS011;18319;48.974;8.462;2023-04-19T05:30:24;9.18;;;7.95;;
31746;SDS011;18319;48.974;8.462;2023-04-19T05:32:51;9.80;;;8.25;;
31746;SDS011;18319;48.974;8.462;2023-04-19T05:35:18;9.45;;;7.82;;
31746;SDS011;18319;48.974;8.462;2023-04-19T05:37:45;9.93;;;7.78;;
31746;SDS011;18319;48.974;8.462;2023-04-19T05:40:13;10.20;;;8.10;;
31746;SDS011;18319;48.974;8.462;2023-04-19T05:42:40;9.73;;;8.73;;
31746;SDS011;18319;48.974;8.462;2023-04-19T05:45:07;10.13;;;9.13;;
31746;SDS011;18319;48.974;8.462;2023-04-19T05:47:35;9.85;;;8.18;;
31746;SDS011;18319;48.974;8.462;2023-04-19T05:50:02;9.82;;;8.77;;
31746;SDS011;18319;48.974;8.462;2023-04-19T05:52:28;8.90;;;7.82;;
31746;SDS011;18319;48.974;8.462;2023-04-19T05:54:55;9.88;;;7.70;;
31746;SDS011;18319;48.974;8.462;2023-04-19T05:57:24;9.10;;;7.75;;
31746;SDS011;18319;48.974;8.462;2023-04-19T05:59:51;10.60;;;8.73;;
31746;SDS011;18319;48.974;8.462;2023-04-19T06:02:18;9.23;;;8.23;;
31746;SDS011;18319;48.974;8.462;2023-04-19T06:04:44;9.43;;;8.10;;
31746;SDS011;18319;48.974;8.462;2023-04-19T06:07:11;8.82;;;7.90;;
31746;SDS011;18319;48.974;8.462;2023-04-19T06:09:38;9.18;;;7.63;;
31746;SDS011;18319;48.974;8.462;2023-04-19T06:12:05;8.65;;;7.60;;
31746;SDS011;18319;48.974;8.462;2023-04-19T06:14:33;10.63;;;8.13;;
31746;SDS011;18319;48.974;8.462;2023-04-19T06:17:00;9.55;;;7.93;;
31746;SDS011;18319;48.974;8.462;2023-04-19T06:19:27;10.35;;;9.25;;
31746;SDS011;18319;48.974;8.462;2023-04-19T06:21:53;9.18;;;8.20;;
31746;SDS011;18319;48.974;8.462;2023-04-19T06:24:20;10.95;;;8.07;;
31746;SDS011;18319;48.974;8.462;2023-04-19T06:26:47;9.55;;;7.90;;
31746;SDS011;18319;48.974;8.462;2023-04-19T06:29:14;8.90;;;7.45;;
31746;SDS011;18319;48.974;8.462;2023-04-19T06:31:42;9.23;;;7.40;;
31746;SDS011;18319;48.974;8.462;2023-04-19T06:34:10;8.50;;;7.65;;
31746;SDS011;18319;48.974;8.462;2023-04-19T06:36:36;8.50;;;7.65;;
31746;SDS011;18319;48.974;8.462;2023-04-19T06:39:03;8.85;;;7.60;;
31746;SDS011;18319;48.974;8.462;2023-04-19T06:41:30;10.68;;;8.43;;
31746;SDS011;18319;48.974;8.462;2023-04-19T06:43:57;8.02;;;7.25;;
31746;SDS011;18319;48.974;8.462;2023-04-19T06:46:24;8.65;;;7.78;;
31746;SDS011;18319;48.974;8.462;2023-04-19T06:48:52;9.27;;;8.18;;
31746;SDS011;18319;48.974;8.462;2023-04-19T06:51:19;9.48;;;8.00;;
31746;SDS011;18319;48.974;8.462;2023-04-19T06:53:48;10.40;;;8.07;;
31746;SDS011;18319;48.974;8.462;2023-04-19T06:56:15;7.90;;;6.82;;
31746;SDS011;18319;48.974;8.462;2023-04-19T06:58:41;7.28;;;6.57;;
31746;SDS011;18319;48.974;8.462;2023-04-19T07:01:08;9.45;;;6.85;;
31746;SDS011;18319;48.974;8.462;2023-04-19T07:03:35;8.05;;;7.32;;
31746;SDS011;18319;48.974;8.462;2023-04-19T07:06:04;8.32;;;7.53;;
31746;SDS011;18319;48.974;8.462;2023-04-19T07:08:30;9.85;;;7.57;;
31746;SDS011;18319;48.974;8.462;2023-04-19T07:10:57;8.85;;;8.00;;
31746;SDS011;18319;48.974;8.462;2023-04-19T07:13:24;8.55;;;6.68;;
31746;SDS011;18319;48.974;8.462;2023-04-19T07:15:51;10.98;;;7.20;;
31746;SDS011;18319;48.974;8.462;2023-04-19T07:18:18;9.10;;;7.00;;
31746;SDS011;18319;48.974;8.462;2023-04-19T07:20:44;7.05;;;6.40;;
31746;SDS011;18319;48.974;8.462;2023-04-19T07:25:40;8.98;;;7.07;;
31746;SDS011;18319;48.974;8.462;2023-04-19T07:28:07;9.98;;;7.22;;
31746;SDS011;18319;48.974;8.462;2023-04-19T07:30:34;7.63;;;6.53;;
31746;SDS011;18319;48.974;8.462;2023-04-19T07:33:01;7.82;;;7.10;;
31746;SDS011;18319;48.974;8.462;2023-04-19T07:35:29;7.28;;;6.57;;
31746;SDS011;18319;48.974;8.462;2023-04-19T07:37:56;7.78;;;6.45;;
31746;SDS011;18319;48.974;8.462;2023-04-19T07:40:22;7.35;;;6.75;;
31746;SDS011;18319;48.974;8.462;2023-04-19T07:42:50;7.32;;;6.65;;
31746;SDS011;18319;48.974;8.462;2023-04-19T07:45:20;8.57;;;6.75;;
31746;SDS011;18319;48.974;8.462;2023-04-19T07:47:46;7.07;;;6.38;;
31746;SDS011;18319;48.974;8.462;2023-04-19T07:50:13;8.65;;;6.43;;
31746;SDS011;18319;48.974;8.462;2023-04-19T07:52:40;7.25;;;6.55;;
31746;SDS011;18319;48.974;8.462;2023-04-19T07:55:07;7.88;;;7.07;;
31746;SDS011;18319;48.974;8.462;2023-04-19T07:57:34;8.43;;;6.45;;
31746;SDS011;18319;48.974;8.462;2023-04-19T08:00:03;7.55;;;6.28;;
31746;SDS011;18319;48.974;8.462;2023-04-19T08:02:30;6.85;;;6.28;;
31746;SDS011;18319;48.974;8.462;2023-04-19T08:04:57;7.20;;;6.50;;
31746;SDS011;18319;48.974;8.462;2023-04-19T08:07:26;6.13;;;5.53;;
31746;SDS011;18319;48.974;8.462;2023-04-19T08:09:52;6.75;;;6.10;;
31746;SDS011;18319;48.974;8.462;2023-04-19T08:12:19;8.50;;;5.88;;
31746;SDS011;18319;48.974;8.462;2023-04-19T08:14:46;8.07;;;7.10;;
31746;SDS011;18319;48.974;8.462;2023-04-19T08:17:14;6.47;;;5.65;;
31746;SDS011;18319;48.974;8.462;2023-04-19T08:19:44;6.78;;;6.18;;
31746;SDS011;18319;48.974;8.462;2023-04-19T08:22:11;5.97;;;5.30;;
31746;SDS011;18319;48.974;8.462;2023-04-19T08:24:38;6.90;;;5.88;;
31746;SDS011;18319;48.974;8.462;2023-04-19T08:27:05;6.22;;;5.63;;
31746;SDS011;18319;48.974;8.462;2023-04-19T08:29:31;6.78;;;5.72;;
31746;SDS011;18319;48.974;8.462;2023-04-19T08:31:58;6.88;;;5.55;;
31746;SDS011;18319;48.974;8.462;2023-04-19T08:34:27;6.20;;;5.50;;
31746;SDS011;18319;48.974;8.462;2023-04-19T08:36:54;6.72;;;6.13;;
31746;SDS011;18319;48.974;8.462;2023-04-19T08:39:20;7.75;;;6.53;;
31746;SDS011;18319;48.974;8.462;2023-04-19T08:41:48;9.27;;;5.93;;
31746;SDS011;18319;48.974;8.462;2023-04-19T08:44:15;7.65;;;5.20;;
31746;SDS011;18319;48.974;8.462;2023-04-19T08:46:44;5.88;;;5.28;;
31746;SDS011;18319;48.974;8.462;2023-04-19T08:49:12;6.22;;;5.68;;
31746;SDS011;18319;48.974;8.462;2023-04-19T08:51:41;5.28;;;4.88;;
31746;SDS011;18319;48.974;8.462;2023-04-19T08:54:09;6.10;;;5.50;;
31746;SDS011;18319;48.974;8.462;2023-04-19T08:56:36;6.97;;;4.90;;
31746;SDS011;18319;48.974;8.462;2023-04-19T08:59:03;5.38;;;4.90;;
31746;SDS011;18319;48.974;8.462;2023-04-19T09:01:30;6.03;;;5.35;;
31746;SDS011;18319;48.974;8.462;2023-04-19T09:03:57;7.40;;;6.25;;
31746;SDS011;18319;48.974;8.462;2023-04-19T09:06:24;6.28;;;5.78;;
31746;SDS011;18319;48.974;8.462;2023-04-19T09:08:52;6.53;;;6.00;;
31746;SDS011;18319;48.974;8.462;2023-04-19T09:11:38;7.68;;;5.70;;
31746;SDS011;18319;48.974;8.462;2023-04-19T09:14:08;5.47;;;4.97;;
31746;SDS011;18319;48.974;8.462;2023-04-19T09:16:35;6.82;;;5.43;;
31746;SDS011;18319;48.974;8.462;2023-04-19T09:19:03;5.68;;;5.28;;
31746;SDS011;18319;48.974;8.462;2023-04-19T09:21:32;6.03;;;5.47;;
31746;SDS011;18319;48.974;8.462;2023-04-19T09:24:01;7.05;;;6.25;;
31746;SDS011;18319;48.974;8.462;2023-04-19T09:26:28;6.75;;;6.10;;
31746;SDS011;18319;48.974;8.462;2023-04-19T09:28:55;6.38;;;5.78;;
31746;SDS011;18319;48.974;8.462;2023-04-19T09:31:23;9.02;;;6.47;;
31746;SDS011;18319;48.974;8.462;2023-04-19T09:33:52;6.30;;;5.68;;
31746;SDS011;18319;48.974;8.462;2023-04-19T09:36:26;7.35;;;6.57;;
31746;SDS011;18319;48.974;8.462;2023-04-19T09:38:54;9.18;;;7.35;;
31746;SDS011;18319;48.974;8.462;2023-04-19T09:41:23;7.47;;;6.78;;
31746;SDS011;18319;48.974;8.462;2023-04-19T09:43:50;8.07;;;7.28;;
31746;SDS011;18319;48.974;8.462;2023-04-19T09:46:30;7.18;;;6.47;;
31746;SDS011;18319;48.974;8.462;2023-04-19T09:51:45;7.15;;;6.10;;
31746;SDS011;18319;48.974;8.462;2023-04-19T09:54:14;6.70;;;6.18;;
31746;SDS011;18319;48.974;8.462;2023-04-19T09:56:45;6.50;;;5.90;;
31746;SDS011;18319;48.974;8.462;2023-04-19T09:59:12;6.38;;;5.88;;
31746;SDS011;18319;48.974;8.462;2023-04-19T10:01:41;5.45;;;4.97;;
31746;SDS011;18319;48.974;8.462;2023-04-19T10:04:10;6.15;;;5.65;;
31746;SDS011;18319;48.974;8.462;2023-04-19T10:06:38;6.32;;;5.70;;
31746;SDS011;18319;48.974;8.462;2023-04-19T10:09:05;5.97;;;5.45;;
31746;SDS011;18319;48.974;8.462;2023-04-19T10:11:33;6.28;;;5.57;;
31746;SDS011;18319;48.974;8.462;2023-04-19T10:14:04;5.43;;;4.90;;
31746;SDS011;18319;48.974;8.462;2023-04-19T10:16:32;7.72;;;5.90;;
31746;SDS011;18319;48.974;8.462;2023-04-19T10:19:00;6.22;;;5.50;;
31746;SDS011;18319;48.974;8.462;2023-04-19T10:21:28;6.18;;;5.68;;
31746;SDS011;18319;48.974;8.462;2023-04-19T10:23:57;6.85;;;5.78;;
31746;SDS011;18319;48.974;8.462;2023-04-19T10:26:24;5.68;;;5.28;;
31746;SDS011;18319;48.974;8.462;2023-04-19T10:28:52;6.40;;;5.35;;
31746;SDS011;18319;48.974;8.462;2023-04-19T10:31:23;6.18;;;5.57;;
31746;SDS011;18319;48.974;8.462;2023-04-19T10:33:51;5.07;;;4.65;;
31746;SDS011;18319;48.974;8.462;2023-04-19T10:36:19;4.72;;;4.35;;
31746;SDS011;18319;48.974;8.462;2023-04-19T10:38:46;5.00;;;4.57;;
31746;SDS011;18319;48.974;8.462;2023-04-19T10:41:16;4.95;;;4.57;;
31746;SDS011;18319;48.974;8.462;2023-04-19T10:43:44;4.88;;;4.47;;
31746;SDS011;18319;48.974;8.462;2023-04-19T10:46:12;5.72;;;5.20;;
31746;SDS011;18319;48.974;8.462;2023-04-19T10:48:52;5.35;;;4.85;;
31746;SDS011;18319;48.974;8.462;2023-04-19T10:51:23;4.93;;;4.07;;
31746;SDS011;18319;48.974;8.462;2023-04-19T10:53:53;6.05;;;5.55;;
31746;SDS011;18319;48.974;8.462;2023-04-19T10:59:23;5.88;;;5.22;;
31746;SDS011;18319;48.974;8.462;2023-04-19T11:01:51;5.40;;;4.90;;
31746;SDS011;18319;48.974;8.462;2023-04-19T11:04:22;5.18;;;4.72;;
31746;SDS011;18319;48.974;8.462;2023-04-19T11:07:10;4.85;;;4.45;;
31746;SDS011;18319;48.974;8.462;2023-04-19T11:09:37;5.68;;;5.07;;
31746;SDS011;18319;48.974;8.462;2023-04-19T11:12:06;5.60;;;5.10;;
31746;SDS011;18319;48.974;8.462;2023-04-19T11:14:36;5.18;;;4.65;;
31746;SDS011;18319;48.974;8.462;2023-04-19T11:17:12;5.38;;;4.90;;
31746;SDS011;18319;48.974;8.462;2023-04-19T11:19:42;5.18;;;4.88;;
31746;SDS011;18319;48.974;8.462;2023-04-19T11:22:10;4.70;;;4.40;;
31746;SDS011;18319;48.974;8.462;2023-04-19T11:24:37;5.93;;;5.38;;
31746;SDS011;18319;48.974;8.462;2023-04-19T11:27:09;7.50;;;5.63;;
31746;SDS011;18319;48.974;8.462;2023-04-19T11:29:36;6.30;;;5.78;;
31746;SDS011;18319;48.974;8.462;2023-04-19T11:32:03;7.95;;;5.75;;
31746;SDS011;18319;48.974;8.462;2023-04-19T11:34:34;6.53;;;5.68;;
31746;SDS011;18319;48.974;8.462;2023-04-19T11:37:03;5.30;;;4.90;;
31746;SDS011;18319;48.974;8.462;2023-04-19T11:39:30;5.05;;;4.65;;
31746;SDS011;18319;48.974;8.462;2023-04-19T11:41:56;6.00;;;4.50;;
31746;SDS011;18319;48.974;8.462;2023-04-19T11:44:23;5.85;;;5.35;;
31746;SDS011;18319;48.974;8.462;2023-04-19T11:47:01;7.20;;;6.53;;
31746;SDS011;18319;48.974;8.462;2023-04-19T11:49:31;5.30;;;4.90;;
31746;SDS011;18319;48.974;8.462;2023-04-19T11:51:59;5.90;;;5.25;;
31746;SDS011;18319;48.974;8.462;2023-04-19T11:54:28;5.95;;;5.35;;
31746;SDS011;18319;48.974;8.462;2023-04-19T11:56:56;4.90;;;4.50;;
31746;SDS011;18319;48.974;8.462;2023-04-19T11:59:27;6.03;;;5.45;;
31746;SDS011;18319;48.974;8.462;2023-04-19T12:01:54;7.22;;;6.60;;
31746;SDS011;18319;48.974;8.462;2023-04-19T12:04:21;5.60;;;5.20;;
31746;SDS011;18319;48.974;8.462;2023-04-19T12:06:55;6.72;;;6.13;;
31746;SDS011;18319;48.974;8.462;2023-04-19T12:09:23;6.45;;;5.85;;
31746;SDS011;18319;48.974;8.462;2023-04-19T12:11:51;5.97;;;5.43;;
31746;SDS011;18319;48.974;8.462;2023-04-19T12:14:19;6.10;;;5.50;;
31746;SDS011;18319;48.974;8.462;2023-04-19T12:19:33;5.93;;;5.43;;
31746;SDS011;18319;48.974;8.462;2023-04-19T12:22:06;6.28;;;5.43;;
31746;SDS011;18319;48.974;8.462;2023-04-19T12:24:34;7.65;;;6.72;;
31746;SDS011;18319;48.974;8.462;2023-04-19T12:27:03;6.85;;;6.25;;
31746;SDS011;18319;48.974;8.462;2023-04-19T12:29:31;7.05;;;5.55;;
31746;SDS011;18319;48.974;8.462;2023-04-19T12:31:58;7.22;;;6.13;;
31746;SDS011;18319;48.974;8.462;2023-04-19T12:34:25;7.05;;;6.45;;
31746;SDS011;18319;48.974;8.462;2023-04-19T12:36:52;6.97;;;6.28;;
31746;SDS011;18319;48.974;8.462;2023-04-19T12:39:19;7.07;;;6.15;;
31746;SDS011;18319;48.974;8.462;2023-04-19T12:41:45;6.85;;;6.30;;
31746;SDS011;18319;48.974;8.462;2023-04-19T12:44:15;6.80;;;6.10;;
31746;SDS011;18319;48.974;8.462;2023-04-19T12:46:41;7.03;;;5.80;;
31746;SDS011;18319;48.974;8.462;2023-04-19T12:49:08;7.13;;;6.18;;
31746;SDS011;18319;48.974;8.462;2023-04-19T12:51:35;7.28;;;6.57;;
31746;SDS011;18319;48.974;8.462;2023-04-19T12:54:02;8.57;;;6.70;;
31746;SDS011;18319;48.974;8.462;2023-04-19T12:56:28;7.50;;;6.72;;
31746;SDS011;18319;48.974;8.462;2023-04-19T12:58:55;8.18;;;6.45;;
31746;SDS011;18319;48.974;8.462;2023-04-19T13:01:23;6.40;;;5.90;;
31746;SDS011;18319;48.974;8.462;2023-04-19T13:03:50;8.80;;;7.93;;
31746;SDS011;18319;48.974;8.462;2023-04-19T13:06:17;9.20;;;7.82;;
31746;SDS011;18319;48.974;8.462;2023-04-19T13:08:44;10.32;;;7.60;;
31746;SDS011;18319;48.974;8.462;2023-04-19T13:11:11;8.70;;;7.82;;
31746;SDS011;18319;48.974;8.462;2023-04-19T13:13:38;9.00;;;8.10;;
31746;SDS011;18319;48.974;8.462;2023-04-19T13:16:05;9.07;;;8.13;;
31746;SDS011;18319;48.974;8.462;2023-04-19T13:21:01;17.08;;;12.02;;
31746;SDS011;18319;48.974;8.462;2023-04-19T13:23:28;12.75;;;9.73;;
31746;SDS011;18319;48.974;8.462;2023-04-19T13:25:55;11.98;;;9.35;;
31746;SDS011;18319;48.974;8.462;2023-04-19T13:28:21;11.40;;;9.23;;
31746;SDS011;18319;48.974;8.462;2023-04-19T13:30:48;11.90;;;8.98;;
31746;SDS011;18319;48.974;8.462;2023-04-19T13:33:15;10.02;;;8.45;;
31746;SDS011;18319;48.974;8.462;2023-04-19T13:35:43;11.48;;;9.88;;
31746;SDS011;18319;48.974;8.462;2023-04-19T13:38:10;13.80;;;10.27;;
31746;SDS011;18319;48.974;8.462;2023-04-19T13:40:36;11.18;;;9.80;;
31746;SDS011;18319;48.974;8.462;2023-04-19T13:43:03;14.02;;;10.10;;
31746;SDS011;18319;48.974;8.462;2023-04-19T13:45:30;12.57;;;10.45;;
31746;SDS011;18319;48.974;8.462;2023-04-19T13:47:57;10.18;;;9.25;;
31746;SDS011;18319;48.974;8.462;2023-04-19T13:50:24;12.80;;;10.45;;
31746;SDS011;18319;48.974;8.462;2023-04-19T13:52:52;13.55;;;10.02;;
31746;SDS011;18319;48.974;8.462;2023-04-19T13:55:19;11.40;;;10.20;;
31746;SDS011;18319;48.974;8.462;2023-04-19T13:57:45;12.38;;;10.85;;
31746;SDS011;18319;48.974;8.462;2023-04-19T14:00:13;10.50;;;9.40;;
31746;SDS011;18319;48.974;8.462;2023-04-19T14:02:40;10.55;;;9.45;;
31746;SDS011;18319;48.974;8.462;2023-04-19T14:05:07;12.02;;;9.80;;
31746;SDS011;18319;48.974;8.462;2023-04-19T14:07:37;13.23;;;10.27;;
31746;SDS011;18319;48.974;8.462;2023-04-19T14:10:07;13.23;;;9.57;;
31746;SDS011;18319;48.974;8.462;2023-04-19T14:12:35;12.38;;;9.73;;
31746;SDS011;18319;48.974;8.462;2023-04-19T14:15:01;12.00;;;8.40;;
31746;SDS011;18319;48.974;8.462;2023-04-19T14:17:29;9.40;;;8.15;;
31746;SDS011;18319;48.974;8.462;2023-04-19T14:19:55;10.27;;;8.95;;
31746;SDS011;18319;48.974;8.462;2023-04-19T14:22:22;10.20;;;8.25;;
31746;SDS011;18319;48.974;8.462;2023-04-19T14:24:49;12.00;;;9.48;;
31746;SDS011;18319;48.974;8.462;2023-04-19T14:27:17;9.77;;;8.18;;
31746;SDS011;18319;48.974;8.462;2023-04-19T14:29:45;12.73;;;8.95;;
31746;SDS011;18319;48.974;8.462;2023-04-19T14:32:12;10.30;;;8.55;;
31746;SDS011;18319;48.974;8.462;2023-04-19T14:34:39;9.40;;;8.40;;
31746;SDS011;18319;48.974;8.462;2023-04-19T14:37:06;9.93;;;8.80;;
31746;SDS011;18319;48.974;8.462;2023-04-19T14:39:33;13.00;;;8.77;;
31746;SDS011;18319;48.974;8.462;2023-04-19T14:42:00;11.93;;;8.90;;
31746;SDS011;18319;48.974;8.462;2023-04-19T14:44:28;8.68;;;7.82;;
31746;SDS011;18319;48.974;8.462;2023-04-19T14:46:55;9.38;;;8.32;;
31746;SDS011;18319;48.974;8.462;2023-04-19T14:49:22;18.13;;;8.13;;
31746;SDS011;18319;48.974;8.462;2023-04-19T14:51:50;11.30;;;8.77;;
31746;SDS011;18319;48.974;8.462;2023-04-19T14:54:18;10.70;;;7.80;;
31746;SDS011;18319;48.974;8.462;2023-04-19T14:56:44;10.02;;;8.05;;